createdAt,value
2023-03-18T00:01:07.606Z,8.19
2023-03-18T00:03:40.607Z,8.18
2023-03-18T00:06:16.879Z,8.10
2023-03-18T00:08:50.847Z,8.22
2023-03-18T00:11:24.987Z,8.25
2023-03-18T00:13:57.487Z,8.22
2023-03-18T00:16:30.604Z,8.21
2023-03-18T00:19:04.179Z,8.18
2023-03-18T00:21:37.259Z,8.20
2023-03-18T00:24:11.972Z,8.17
2023-03-18T00:26:42.828Z,8.01
2023-03-18T00:29:15.565Z,8.11
2023-03-18T00:31:49.845Z,8.08
2023-03-18T00:34:22.543Z,8.10
2023-03-18T00:36:57.303Z,8.07
2023-03-18T00:39:33.309Z,8.08
2023-03-18T00:42:10.829Z,8.07
2023-03-18T00:44:45.237Z,8.02
2023-03-18T00:47:18.130Z,7.97
2023-03-18T00:49:52.638Z,8.08
2023-03-18T00:52:27.635Z,8.06
2023-03-18T00:55:00.791Z,8.04
2023-03-18T00:57:34.482Z,7.98
2023-03-18T01:00:11.522Z,7.94
2023-03-18T01:02:44.322Z,7.84
2023-03-18T01:05:17.859Z,7.83
2023-03-18T01:07:52.636Z,7.87
2023-03-18T01:10:25.765Z,7.90
2023-03-18T01:12:58.532Z,7.81
2023-03-18T01:15:31.485Z,7.81
2023-03-18T01:18:04.912Z,7.75
2023-03-18T01:20:38.208Z,7.61
2023-03-18T01:23:10.955Z,7.65
2023-03-18T01:25:44.766Z,7.68
2023-03-18T01:28:19.908Z,7.72
2023-03-18T01:30:54.083Z,7.75
2023-03-18T01:33:29.953Z,7.74
2023-03-18T01:36:05.158Z,7.72
2023-03-18T01:38:39.018Z,7.73
2023-03-18T01:41:16.725Z,7.77
2023-03-18T01:43:49.848Z,7.68
2023-03-18T01:46:39.201Z,7.65
2023-03-18T01:49:17.694Z,7.66
2023-03-18T01:51:56.716Z,7.71
2023-03-18T01:54:33.419Z,7.65
2023-03-18T01:57:07.688Z,7.71
2023-03-18T01:59:43.355Z,7.69
2023-03-18T02:02:18.552Z,7.61
2023-03-18T02:04:55.142Z,7.68
2023-03-18T02:07:32.728Z,7.62
2023-03-18T02:10:11.284Z,7.65
2023-03-18T02:12:48.698Z,7.56
2023-03-18T02:15:28.335Z,7.62
2023-03-18T02:18:06.284Z,7.62
2023-03-18T02:20:54.043Z,7.59
2023-03-18T02:23:39.246Z,7.57
2023-03-18T02:26:23.357Z,7.51
2023-03-18T02:28:59.853Z,7.50
2023-03-18T02:31:33.254Z,7.47
2023-03-18T02:34:10.998Z,7.40
2023-03-18T02:36:46.129Z,7.45
2023-03-18T02:39:19.612Z,7.43
2023-03-18T02:41:53.899Z,7.55
2023-03-18T02:44:29.549Z,7.52
2023-03-18T02:47:26.140Z,7.41
2023-03-18T02:49:59.678Z,7.29
2023-03-18T02:52:33.679Z,7.37
2023-03-18T02:55:11.930Z,7.37
2023-03-18T02:57:46.727Z,7.36
2023-03-18T03:00:19.064Z,7.36
2023-03-18T03:02:52.560Z,7.28
2023-03-18T03:05:27.761Z,7.18
2023-03-18T03:08:03.326Z,7.26
2023-03-18T03:10:38.608Z,7.24
2023-03-18T03:13:11.698Z,7.33
2023-03-18T03:15:45.403Z,7.39
2023-03-18T03:18:18.375Z,7.41
2023-03-18T03:20:51.237Z,7.46
2023-03-18T03:23:26.452Z,7.48
2023-03-18T03:26:00.061Z,7.53
2023-03-18T03:28:35.570Z,7.58
2023-03-18T03:31:09.306Z,7.54
2023-03-18T03:33:43.825Z,7.53
2023-03-18T03:36:18.470Z,7.51
2023-03-18T03:38:51.385Z,7.46
2023-03-18T03:41:24.075Z,7.48
2023-03-18T03:43:56.645Z,7.57
2023-03-18T03:46:29.625Z,7.47
2023-03-18T03:49:03.554Z,7.49
2023-03-18T03:51:36.764Z,7.55
2023-03-18T03:54:09.705Z,7.52
2023-03-18T03:56:44.026Z,7.53
2023-03-18T03:59:17.422Z,7.52
2023-03-18T04:02:13.795Z,7.55
2023-03-18T04:04:47.082Z,7.60
2023-03-18T04:07:27.953Z,7.63
2023-03-18T04:10:03.097Z,7.62
2023-03-18T04:12:36.378Z,7.57
2023-03-18T04:15:12.249Z,7.58
2023-03-18T04:17:45.464Z,7.67
2023-03-18T04:20:22.697Z,7.71
2023-03-18T04:22:56.258Z,7.72
2023-03-18T04:25:30.412Z,7.58
2023-03-18T04:28:05.189Z,7.67
2023-03-18T04:30:37.428Z,7.57
2023-03-18T04:33:14.521Z,7.50
2023-03-18T04:35:48.861Z,7.57
2023-03-18T04:38:21.782Z,7.62
2023-03-18T04:40:56.269Z,7.59
2023-03-18T04:43:28.787Z,7.68
2023-03-18T04:46:02.291Z,7.72
2023-03-18T04:48:36.036Z,7.70
2023-03-18T04:51:10.613Z,7.70
2023-03-18T04:53:43.584Z,7.72
2023-03-18T04:56:16.612Z,7.76
2023-03-18T04:58:54.284Z,7.74
2023-03-18T05:01:31.946Z,7.76
2023-03-18T05:04:04.788Z,7.60
2023-03-18T05:06:46.115Z,7.65
2023-03-18T05:09:23.006Z,7.62
2023-03-18T05:11:56.196Z,7.67
2023-03-18T05:14:43.277Z,7.76
2023-03-18T05:17:20.724Z,7.75
2023-03-18T05:20:00.396Z,7.68
2023-03-18T05:22:34.986Z,7.67
2023-03-18T05:25:16.707Z,7.59
2023-03-18T05:27:50.287Z,7.42
2023-03-18T05:30:32.458Z,7.55
2023-03-18T05:33:06.689Z,7.56
2023-03-18T05:35:49.057Z,7.47
2023-03-18T05:38:24.272Z,7.54
2023-03-18T05:40:58.323Z,7.59
2023-03-18T05:43:39.984Z,7.55
2023-03-18T05:46:13.946Z,7.54
2023-03-18T05:49:02.484Z,7.54
2023-03-18T05:51:41.268Z,7.54
2023-03-18T05:54:16.821Z,7.44
2023-03-18T05:56:53.475Z,7.44
2023-03-18T05:59:27.074Z,7.50
2023-03-18T06:02:03.716Z,7.51
2023-03-18T06:04:37.387Z,7.47
2023-03-18T06:07:12.996Z,7.55
2023-03-18T06:09:46.835Z,7.57
2023-03-18T06:12:23.228Z,7.65
2023-03-18T06:14:56.420Z,7.64
2023-03-18T06:17:30.646Z,7.69
2023-03-18T06:20:04.122Z,7.71
2023-03-18T06:22:39.191Z,7.68
2023-03-18T06:25:14.962Z,7.59
2023-03-18T06:27:48.025Z,7.66
2023-03-18T06:30:22.224Z,7.63
2023-03-18T06:32:56.601Z,7.72
2023-03-18T06:35:32.989Z,7.80
2023-03-18T06:38:08.867Z,7.83
2023-03-18T06:40:44.324Z,7.88
2023-03-18T06:43:17.392Z,7.91
2023-03-18T06:45:52.940Z,7.92
2023-03-18T06:48:29.661Z,7.99
2023-03-18T06:51:04.245Z,8.07
2023-03-18T06:53:42.386Z,8.01
2023-03-18T06:56:16.478Z,8.15
2023-03-18T06:58:57.033Z,8.02
2023-03-18T07:01:33.138Z,8.14
2023-03-18T07:04:06.986Z,8.03
2023-03-18T07:06:40.540Z,8.23
2023-03-18T07:09:15.445Z,8.37
2023-03-18T07:11:48.902Z,8.52
2023-03-18T07:14:25.076Z,8.53
2023-03-18T07:17:01.156Z,8.57
2023-03-18T07:19:35.860Z,8.57
2023-03-18T07:22:11.812Z,8.55
2023-03-18T07:24:46.344Z,8.57
2023-03-18T07:27:19.933Z,8.67
2023-03-18T07:29:53.303Z,8.62
2023-03-18T07:32:25.755Z,8.73
2023-03-18T07:35:00.106Z,8.76
2023-03-18T07:37:33.430Z,8.77
2023-03-18T07:40:06.881Z,8.87
2023-03-18T07:42:39.745Z,8.92
2023-03-18T07:45:13.716Z,9.00
2023-03-18T07:58:12.412Z,9.43
2023-03-18T08:00:47.726Z,9.48
2023-03-18T08:03:20.847Z,9.58
2023-03-18T08:05:55.084Z,9.65
2023-03-18T08:08:28.056Z,9.57
2023-03-18T08:11:03.729Z,9.59
2023-03-18T08:13:36.232Z,9.69
2023-03-18T08:16:10.658Z,9.76
2023-03-18T08:18:46.818Z,9.91
2023-03-18T08:21:18.210Z,10.00
2023-03-18T08:23:51.631Z,10.06
2023-03-18T08:26:24.186Z,10.07
2023-03-18T08:28:57.570Z,10.06
2023-03-18T08:31:31.772Z,10.09
2023-03-18T08:34:06.527Z,10.18
2023-03-18T08:36:39.812Z,10.15
2023-03-18T08:39:12.493Z,10.21
2023-03-18T08:41:45.886Z,10.30
2023-03-18T08:44:18.346Z,10.41
2023-03-18T08:46:51.362Z,10.46
2023-03-18T08:49:24.782Z,10.55
2023-03-18T08:51:57.575Z,10.56
2023-03-18T08:54:30.186Z,10.68
2023-03-18T08:57:02.905Z,10.69
2023-03-18T08:59:36.642Z,10.70
2023-03-18T09:02:14.840Z,10.82
2023-03-18T09:04:48.257Z,10.96
2023-03-18T09:07:21.035Z,11.11
2023-03-18T09:09:55.452Z,11.11
2023-03-18T09:12:28.875Z,11.27
2023-03-18T09:15:02.466Z,11.34
2023-03-18T09:17:53.432Z,11.42
2023-03-18T09:20:29.168Z,11.36
2023-03-18T09:23:02.679Z,11.43
2023-03-18T09:25:36.087Z,11.38
2023-03-18T09:28:08.686Z,11.36
2023-03-18T09:30:41.830Z,11.49
2023-03-18T09:33:14.825Z,11.42
2023-03-18T09:35:47.223Z,11.39
2023-03-18T09:38:21.082Z,11.60
2023-03-18T09:41:06.918Z,11.78
2023-03-18T09:43:59.468Z,11.90
2023-03-18T09:46:40.886Z,12.02
2023-03-18T09:49:28.264Z,12.07
2023-03-18T09:52:15.574Z,12.10
2023-03-18T09:54:55.482Z,12.21
2023-03-18T09:57:32.515Z,12.22
2023-03-18T10:00:11.708Z,12.31
2023-03-18T10:02:49.017Z,12.27
2023-03-18T10:05:28.587Z,12.37
2023-03-18T10:08:07.316Z,12.43
2023-03-18T10:10:46.419Z,12.53
2023-03-18T10:13:24.036Z,12.55
2023-03-18T10:15:58.932Z,12.45
2023-03-18T10:18:35.677Z,12.42
2023-03-18T10:21:22.159Z,12.46
2023-03-18T10:24:07.494Z,12.59
2023-03-18T10:26:48.880Z,12.63
2023-03-18T10:29:42.072Z,12.75
2023-03-18T10:32:27.839Z,12.88
2023-03-18T10:35:09.502Z,12.93
2023-03-18T10:37:57.405Z,12.97
2023-03-18T10:40:34.365Z,13.05
2023-03-18T10:43:15.138Z,13.14
2023-03-18T10:45:53.818Z,13.21
2023-03-18T10:48:33.743Z,13.28
2023-03-18T10:51:14.586Z,13.30
2023-03-18T10:53:54.859Z,13.33
2023-03-18T10:56:27.660Z,13.37
2023-03-18T10:59:00.136Z,13.43
2023-03-18T11:01:33.328Z,13.42
2023-03-18T11:04:14.346Z,13.58
2023-03-18T11:06:50.109Z,13.56
2023-03-18T11:09:29.882Z,13.66
2023-03-18T11:12:07.146Z,13.71
2023-03-18T11:14:40.473Z,13.85
2023-03-18T11:17:23.845Z,14.00
2023-03-18T11:20:08.977Z,14.15
2023-03-18T11:22:52.303Z,14.34
2023-03-18T11:25:27.102Z,14.52
2023-03-18T11:28:00.490Z,14.59
2023-03-18T11:30:37.508Z,14.57
2023-03-18T11:33:17.914Z,14.68
2023-03-18T11:35:56.948Z,14.75
2023-03-18T11:38:32.730Z,14.80
2023-03-18T11:41:19.018Z,14.89
2023-03-18T11:44:02.063Z,14.91
2023-03-18T11:46:40.733Z,15.04
2023-03-18T11:49:17.983Z,15.15
2023-03-18T11:52:00.753Z,15.44
2023-03-18T11:55:04.416Z,15.57
2023-03-18T11:57:51.328Z,15.66
2023-03-18T12:00:35.359Z,15.87
2023-03-18T12:03:33.408Z,15.97
2023-03-18T12:06:14.871Z,16.00
2023-03-18T12:09:01.006Z,15.98
2023-03-18T12:11:53.581Z,15.95
2023-03-18T12:14:34.754Z,15.97
2023-03-18T12:17:18.993Z,16.04
2023-03-18T12:20:13.693Z,16.04
2023-03-18T12:23:00.665Z,16.01
2023-03-18T12:25:59.320Z,15.89
2023-03-18T12:28:41.843Z,15.86
2023-03-18T12:31:36.115Z,15.77
2023-03-18T12:34:27.366Z,15.80
2023-03-18T12:37:21.349Z,15.82
2023-03-18T12:40:27.281Z,15.99
2023-03-18T12:43:24.285Z,16.06
2023-03-18T12:46:05.924Z,16.03
2023-03-18T12:48:46.950Z,16.12
2023-03-18T12:51:26.693Z,16.03
2023-03-18T12:54:10.019Z,15.92
2023-03-18T12:56:53.050Z,15.80
2023-03-18T12:59:34.356Z,15.84
2023-03-18T13:02:21.435Z,15.77
2023-03-18T13:04:59.170Z,15.72
2023-03-18T13:07:43.441Z,15.71
2023-03-18T13:10:24.921Z,15.63
2023-03-18T13:13:01.350Z,15.62
2023-03-18T13:15:43.363Z,15.55
2023-03-18T13:18:22.402Z,15.48
2023-03-18T13:21:00.094Z,15.42
2023-03-18T13:24:00.811Z,15.36
2023-03-18T13:26:49.546Z,15.37
2023-03-18T13:29:32.408Z,15.39
2023-03-18T13:32:20.372Z,15.34
2023-03-18T13:35:36.613Z,15.29
2023-03-18T13:38:19.552Z,15.38
2023-03-18T13:41:06.138Z,15.40
2023-03-18T13:43:42.981Z,15.40
2023-03-18T13:46:24.769Z,15.42
2023-03-18T13:49:01.906Z,15.44
2023-03-18T13:51:59.240Z,15.39
2023-03-18T13:54:41.045Z,15.41
2023-03-18T13:57:48.108Z,15.42
2023-03-18T14:00:33.185Z,15.49
2023-03-18T14:03:17.751Z,15.55
2023-03-18T14:05:51.829Z,15.64
2023-03-18T14:08:46.290Z,15.69
2023-03-18T14:11:52.836Z,15.57
2023-03-18T14:14:58.625Z,15.74
2023-03-18T14:17:37.489Z,15.71
2023-03-18T14:20:27.393Z,15.71
2023-03-18T14:23:37.116Z,15.65
2023-03-18T14:26:20.598Z,15.65
2023-03-18T14:29:16.721Z,15.67
2023-03-18T14:32:09.131Z,15.69
2023-03-18T14:34:59.335Z,15.65
2023-03-18T14:37:34.345Z,15.62
2023-03-18T14:40:18.858Z,15.59
2023-03-18T14:43:00.494Z,15.49
2023-03-18T14:45:38.031Z,15.44
2023-03-18T14:48:20.586Z,15.43
2023-03-18T14:50:56.114Z,15.39
2023-03-18T14:53:35.683Z,15.33
2023-03-18T14:56:18.294Z,15.30
2023-03-18T14:58:54.440Z,15.23
2023-03-18T15:01:35.788Z,15.20
2023-03-18T15:04:17.415Z,15.10
2023-03-18T15:06:51.580Z,15.13
2023-03-18T15:09:28.008Z,15.09
2023-03-18T15:12:00.710Z,15.04
2023-03-18T15:14:35.810Z,15.04
2023-03-18T15:17:15.961Z,15.02
2023-03-18T15:19:49.368Z,14.99
2023-03-18T15:22:28.237Z,14.97
2023-03-18T15:25:04.975Z,14.94
2023-03-18T15:27:39.506Z,14.91
2023-03-18T15:30:28.590Z,14.86
2023-03-18T15:33:09.987Z,14.80
2023-03-18T15:35:55.546Z,14.76
2023-03-18T15:38:33.678Z,14.74
2023-03-18T15:41:12.364Z,14.71
2023-03-18T15:43:48.118Z,14.70
2023-03-18T15:46:27.426Z,14.69
2023-03-18T15:49:05.789Z,14.65
2023-03-18T15:51:45.191Z,14.63
2023-03-18T15:54:28.025Z,14.59
2023-03-18T15:57:11.839Z,14.57
2023-03-18T15:59:47.366Z,14.54
2023-03-18T16:02:20.734Z,14.51
2023-03-18T16:04:53.712Z,14.47
2023-03-18T16:07:28.498Z,14.44
2023-03-18T16:10:00.132Z,14.41
2023-03-18T16:12:33.328Z,14.38
2023-03-18T16:15:07.961Z,14.36
2023-03-18T16:17:40.551Z,14.35
2023-03-18T16:20:18.834Z,14.33
2023-03-18T16:22:52.145Z,14.30
2023-03-18T16:25:26.236Z,14.32
2023-03-18T16:28:02.108Z,14.29
2023-03-18T16:30:36.206Z,14.27
2023-03-18T16:33:14.195Z,14.26
2023-03-18T16:35:47.682Z,14.25
2023-03-18T16:38:20.968Z,14.22
2023-03-18T16:40:54.911Z,14.20
2023-03-18T16:43:29.183Z,14.19
2023-03-18T16:46:04.138Z,14.19
2023-03-18T16:48:37.043Z,14.30
2023-03-18T16:51:09.791Z,14.22
2023-03-18T16:53:44.082Z,14.21
2023-03-18T16:56:22.873Z,14.15
2023-03-18T16:58:57.817Z,14.11
2023-03-18T17:01:31.437Z,13.93
2023-03-18T17:04:15.748Z,13.95
2023-03-18T17:06:48.524Z,13.87
2023-03-18T17:09:23.713Z,13.81
2023-03-18T17:12:02.119Z,13.78
2023-03-18T17:14:40.052Z,13.75
2023-03-18T17:17:22.162Z,13.69
2023-03-18T17:19:55.585Z,13.65
2023-03-18T17:22:30.598Z,13.60
2023-03-18T17:25:03.486Z,13.49
2023-03-18T17:27:41.126Z,13.43
2023-03-18T17:30:21.748Z,13.46
2023-03-18T17:32:56.213Z,13.44
2023-03-18T17:35:28.765Z,13.44
2023-03-18T17:38:01.302Z,13.35
2023-03-18T17:40:33.757Z,13.34
2023-03-18T17:43:07.842Z,13.31
2023-03-18T17:45:41.959Z,13.31
2023-03-18T17:48:21.461Z,13.27
2023-03-18T17:50:57.472Z,13.22
2023-03-18T17:53:34.966Z,13.17
2023-03-18T17:56:14.168Z,13.28
2023-03-18T17:58:48.706Z,13.20
2023-03-18T18:01:24.384Z,13.20
2023-03-18T18:03:58.576Z,13.19
2023-03-18T18:06:32.370Z,13.20
2023-03-18T18:09:06.620Z,13.20
2023-03-18T18:11:44.446Z,13.15
2023-03-18T18:14:21.088Z,13.09
2023-03-18T18:16:56.153Z,13.06
2023-03-18T18:19:29.029Z,13.00
2023-03-18T18:22:03.933Z,12.90
2023-03-18T18:24:36.640Z,12.92
2023-03-18T18:27:15.555Z,12.88
2023-03-18T18:29:48.487Z,12.83
2023-03-18T18:32:22.748Z,12.76
2023-03-18T18:34:55.146Z,12.69
2023-03-18T18:37:27.676Z,12.55
2023-03-18T18:40:00.170Z,12.60
2023-03-18T18:42:32.678Z,12.58
2023-03-18T18:45:05.810Z,12.48
2023-03-18T18:47:39.617Z,12.53
2023-03-18T18:50:18.508Z,12.50
2023-03-18T18:52:51.322Z,12.46
2023-03-18T18:55:23.794Z,12.36
2023-03-18T18:57:57.360Z,12.41
2023-03-18T19:00:30.252Z,12.40
2023-03-18T19:03:03.324Z,12.38
2023-03-18T19:05:36.279Z,12.36
2023-03-18T19:08:13.494Z,12.33
2023-03-18T19:10:45.959Z,12.29
2023-03-18T19:13:18.744Z,12.27
2023-03-18T19:15:51.573Z,12.24
2023-03-18T19:18:26.333Z,12.12
2023-03-18T19:21:00.121Z,12.15
2023-03-18T19:23:35.935Z,12.12
2023-03-18T19:26:13.476Z,11.99
2023-03-18T19:28:59.734Z,12.02
2023-03-18T19:31:35.625Z,11.98
2023-03-18T19:34:16.869Z,11.94
2023-03-18T19:36:53.999Z,11.89
2023-03-18T19:39:28.732Z,11.84
2023-03-18T19:42:01.303Z,11.80
2023-03-18T19:44:33.885Z,11.77
2023-03-18T19:47:06.484Z,11.72
2023-03-18T19:49:39.534Z,11.70
2023-03-18T19:52:20.815Z,11.70
2023-03-18T19:54:54.783Z,11.70
2023-03-18T19:57:30.148Z,11.68
2023-03-18T20:00:05.960Z,11.65
2023-03-18T20:02:40.957Z,11.65
2023-03-18T20:05:22.011Z,11.64
2023-03-18T20:07:54.904Z,11.62
2023-03-18T20:10:27.462Z,11.58
2023-03-18T20:12:59.955Z,11.54
2023-03-18T20:15:33.748Z,11.50
2023-03-18T20:18:07.495Z,11.48
2023-03-18T20:20:40.033Z,11.47
2023-03-18T20:23:18.969Z,11.46
2023-03-18T20:25:54.101Z,11.45
2023-03-18T20:28:30.238Z,11.43
2023-03-18T20:31:05.245Z,11.40
2023-03-18T20:33:37.725Z,11.35
2023-03-18T20:36:19.163Z,11.30
2023-03-18T20:38:52.847Z,11.25
2023-03-18T20:41:26.714Z,11.18
2023-03-18T20:43:59.162Z,11.14
2023-03-18T20:46:32.270Z,11.05
2023-03-18T20:49:05.213Z,11.10
2023-03-18T20:51:40.980Z,11.10
2023-03-18T20:54:20.183Z,11.08
2023-03-18T20:56:52.981Z,11.07
2023-03-18T20:59:25.696Z,11.06
2023-03-18T21:01:59.141Z,11.06
2023-03-18T21:04:31.765Z,10.97
2023-03-18T21:07:04.663Z,11.05
2023-03-18T21:09:39.778Z,11.03
2023-03-18T21:12:17.302Z,11.02
2023-03-18T21:14:50.644Z,10.99
2023-03-18T21:17:26.651Z,10.97
2023-03-18T21:20:11.200Z,10.95
2023-03-18T21:22:56.594Z,10.91
2023-03-18T21:25:32.025Z,10.79
2023-03-18T21:28:05.177Z,10.85
2023-03-18T21:30:37.861Z,10.81
2023-03-18T21:33:21.608Z,10.78
2023-03-18T21:35:57.226Z,10.75
2023-03-18T21:38:31.664Z,10.74
2023-03-18T21:41:05.025Z,10.71
2023-03-18T21:43:39.918Z,10.70
2023-03-18T21:46:17.011Z,10.67
2023-03-18T21:48:49.993Z,10.64
2023-03-18T21:51:38.482Z,10.61
2023-03-18T21:54:19.888Z,10.61
2023-03-18T21:56:52.358Z,10.59
2023-03-18T21:59:24.951Z,10.59
2023-03-18T22:01:57.906Z,10.58
2023-03-18T22:04:30.718Z,10.56
2023-03-18T22:07:03.149Z,10.56
2023-03-18T22:09:35.545Z,10.58
2023-03-18T22:12:12.815Z,10.58
2023-03-18T22:14:45.436Z,10.60
2023-03-18T22:17:28.892Z,10.62
2023-03-18T22:20:02.968Z,10.62
2023-03-18T22:22:38.875Z,10.63
2023-03-18T22:25:25.970Z,10.61
2023-03-18T22:27:58.647Z,10.61
2023-03-18T22:30:34.502Z,10.58
2023-03-18T22:33:08.475Z,10.54
2023-03-18T22:35:41.396Z,10.54
2023-03-18T22:38:17.071Z,10.51
2023-03-18T22:40:52.789Z,10.50
2023-03-18T22:43:34.753Z,10.46
2023-03-18T22:46:10.240Z,10.42
2023-03-18T22:48:43.353Z,10.39
2023-03-18T22:51:24.742Z,10.34
2023-03-18T22:53:57.711Z,10.29
2023-03-18T22:56:32.298Z,10.27
2023-03-18T22:59:04.789Z,10.26
2023-03-18T23:01:38.086Z,10.21
2023-03-18T23:04:12.478Z,10.18
2023-03-18T23:06:45.262Z,10.13
2023-03-18T23:09:17.648Z,10.09
2023-03-18T23:11:50.401Z,10.09
2023-03-18T23:14:22.839Z,10.11
2023-03-18T23:16:55.560Z,10.02
2023-03-18T23:19:28.223Z,9.99
2023-03-18T23:22:00.661Z,10.07
2023-03-18T23:24:33.301Z,10.04
2023-03-18T23:27:05.994Z,10.01
2023-03-18T23:29:38.399Z,10.00
2023-03-18T23:32:12.080Z,9.98
2023-03-18T23:34:45.131Z,9.93
2023-03-18T23:37:19.221Z,9.91
2023-03-18T23:39:51.776Z,9.88
2023-03-18T23:42:24.469Z,9.85
2023-03-18T23:44:57.721Z,9.83
2023-03-18T23:47:31.449Z,9.80
2023-03-18T23:50:05.597Z,9.77
2023-03-18T23:52:40.259Z,9.74
2023-03-18T23:55:31.076Z,9.70
2023-03-18T23:58:05.416Z,9.69
